sensor_id;sensor_type;location;lat;lon;timestamp;pressure;altitude;pressure_sealevel;temperature;humidity
47897;BME280;39629;51.400;5.494;2023-02-20T00:02:07;102442.63;;;3.92;100.00
47897;BME280;39629;51.400;5.494;2023-02-20T00:07:09;102450.63;;;3.96;100.00
47897;BME280;39629;51.400;5.494;2023-02-20T00:12:12;102451.88;;;4.04;100.00
47897;BME280;39629;51.400;5.494;2023-02-20T00:17:14;102449.19;;;4.02;100.00
47897;BME280;39629;51.400;5.494;2023-02-20T00:22:15;102449.88;;;3.98;100.00
47897;BME280;39629;51.400;5.494;2023-02-20T00:27:19;102445.56;;;3.99;100.00
47897;BME280;39629;51.400;5.494;2023-02-20T00:32:20;102432.22;;;3.92;100.00
47897;BME280;39629;51.400;5.494;2023-02-20T00:37:22;102433.97;;;3.76;100.00
47897;BME280;39629;51.400;5.494;2023-02-20T00:42:25;102415.81;;;3.77;100.00
47897;BME280;39629;51.400;5.494;2023-02-20T00:47:26;102410.25;;;3.69;100.00
47897;BME280;39629;51.400;5.494;2023-02-20T00:52:28;102404.94;;;3.68;100.00
47897;BME280;39629;51.400;5.494;2023-02-20T00:57:31;102401.22;;;3.63;100.00
47897;BME280;39629;51.400;5.494;2023-02-20T01:02:32;102386.72;;;3.68;100.00
47897;BME280;39629;51.400;5.494;2023-02-20T01:07:34;102370.16;;;3.84;100.00
47897;BME280;39629;51.400;5.494;2023-02-20T01:12:37;102361.88;;;3.74;100.00
47897;BME280;39629;51.400;5.494;2023-02-20T01:17:39;102364.34;;;3.89;100.00
47897;BME280;39629;51.400;5.494;2023-02-20T01:22:40;102368.50;;;3.86;100.00
47897;BME280;39629;51.400;5.494;2023-02-20T01:27:45;102375.56;;;3.70;100.00
47897;BME280;39629;51.400;5.494;2023-02-20T01:32:47;102380.97;;;3.91;100.00
47897;BME280;39629;51.400;5.494;2023-02-20T01:37:49;102388.56;;;3.70;100.00
47897;BME280;39629;51.400;5.494;2023-02-20T01:42:52;102378.50;;;3.77;100.00
47897;BME280;39629;51.400;5.494;2023-02-20T01:47:55;102382.56;;;3.71;100.00
47897;BME280;39629;51.400;5.494;2023-02-20T01:53:01;102371.09;;;3.68;100.00
47897;BME280;39629;51.400;5.494;2023-02-20T01:58:09;102358.53;;;3.77;100.00
47897;BME280;39629;51.400;5.494;2023-02-20T02:03:13;102356.38;;;3.68;100.00
47897;BME280;39629;51.400;5.494;2023-02-20T02:08:17;102344.09;;;3.66;100.00
47897;BME280;39629;51.400;5.494;2023-02-20T02:13:21;102323.81;;;3.77;100.00
47897;BME280;39629;51.400;5.494;2023-02-20T02:18:32;102302.91;;;3.93;100.00
47897;BME280;39629;51.400;5.494;2023-02-20T02:24:13;102293.50;;;3.79;100.00
47897;BME280;39629;51.400;5.494;2023-02-20T02:29:39;102278.34;;;3.88;100.00
47897;BME280;39629;51.400;5.494;2023-02-20T02:35:27;102288.28;;;3.97;100.00
47897;BME280;39629;51.400;5.494;2023-02-20T02:40:39;102285.34;;;3.89;100.00
47897;BME280;39629;51.400;5.494;2023-02-20T02:45:46;102288.16;;;3.94;100.00
47897;BME280;39629;51.400;5.494;2023-02-20T02:50:52;102278.00;;;4.00;100.00
47897;BME280;39629;51.400;5.494;2023-02-20T02:55:56;102267.97;;;4.07;100.00
47897;BME280;39629;51.400;5.494;2023-02-20T03:01:19;102260.72;;;4.20;100.00
47897;BME280;39629;51.400;5.494;2023-02-20T03:06:26;102257.69;;;4.30;100.00
47897;BME280;39629;51.400;5.494;2023-02-20T03:11:32;102240.88;;;4.41;100.00
47897;BME280;39629;51.400;5.494;2023-02-20T03:16:40;102242.91;;;4.49;100.00
47897;BME280;39629;51.400;5.494;2023-02-20T03:21:46;102233.50;;;4.52;100.00
47897;BME280;39629;51.400;5.494;2023-02-20T03:26:52;102239.75;;;4.56;100.00
47897;BME280;39629;51.400;5.494;2023-02-20T03:31:59;102241.03;;;4.66;100.00
47897;BME280;39629;51.400;5.494;2023-02-20T03:37:21;102230.81;;;4.70;100.00
47897;BME280;39629;51.400;5.494;2023-02-20T03:42:47;102242.09;;;4.69;100.00
47897;BME280;39629;51.400;5.494;2023-02-20T03:48:15;102247.69;;;4.79;100.00
47897;BME280;39629;51.400;5.494;2023-02-20T03:53:20;102246.03;;;4.81;100.00
47897;BME280;39629;51.400;5.494;2023-02-20T03:58:24;102241.06;;;4.87;100.00
47897;BME280;39629;51.400;5.494;2023-02-20T04:03:29;102223.91;;;4.92;100.00
47897;BME280;39629;51.400;5.494;2023-02-20T04:08:36;102220.09;;;4.84;100.00
47897;BME280;39629;51.400;5.494;2023-02-20T04:13:43;102231.16;;;4.78;100.00
47897;BME280;39629;51.400;5.494;2023-02-20T04:18:46;102226.13;;;4.83;100.00
47897;BME280;39629;51.400;5.494;2023-02-20T04:23:58;102233.06;;;4.82;100.00
47897;BME280;39629;51.400;5.494;2023-02-20T04:29:05;102245.34;;;4.85;100.00
47897;BME280;39629;51.400;5.494;2023-02-20T04:34:07;102243.97;;;4.93;100.00
47897;BME280;39629;51.400;5.494;2023-02-20T04:39:10;102240.66;;;4.97;100.00
47897;BME280;39629;51.400;5.494;2023-02-20T04:44:13;102233.03;;;5.02;100.00
47897;BME280;39629;51.400;5.494;2023-02-20T04:49:34;102241.88;;;5.05;100.00
47897;BME280;39629;51.400;5.494;2023-02-20T04:54:38;102239.66;;;5.15;100.00
47897;BME280;39629;51.400;5.494;2023-02-20T04:59:43;102233.59;;;5.16;100.00
47897;BME280;39629;51.400;5.494;2023-02-20T05:04:45;102240.78;;;5.21;100.00
47897;BME280;39629;51.400;5.494;2023-02-20T05:09:47;102240.84;;;5.23;100.00
47897;BME280;39629;51.400;5.494;2023-02-20T05:14:50;102242.88;;;5.30;100.00
47897;BME280;39629;51.400;5.494;2023-02-20T05:19:51;102245.56;;;5.32;100.00
47897;BME280;39629;51.400;5.494;2023-02-20T05:24:53;102249.25;;;5.37;100.00
47897;BME280;39629;51.400;5.494;2023-02-20T05:29:58;102239.03;;;5.41;100.00
47897;BME280;39629;51.400;5.494;2023-02-20T05:35:00;102240.06;;;5.47;100.00
47897;BME280;39629;51.400;5.494;2023-02-20T05:40:02;102237.47;;;5.47;100.00
47897;BME280;39629;51.400;5.494;2023-02-20T05:45:07;102238.56;;;5.52;100.00
47897;BME280;39629;51.400;5.494;2023-02-20T05:50:09;102237.91;;;5.57;100.00
47897;BME280;39629;51.400;5.494;2023-02-20T05:55:10;102248.41;;;5.59;100.00
47897;BME280;39629;51.400;5.494;2023-02-20T06:00:14;102242.44;;;5.61;100.00
47897;BME280;39629;51.400;5.494;2023-02-20T06:05:16;102249.63;;;5.67;100.00
47897;BME280;39629;51.400;5.494;2023-02-20T06:10:18;102253.03;;;5.66;100.00
47897;BME280;39629;51.400;5.494;2023-02-20T06:15:21;102252.41;;;5.72;100.00
47897;BME280;39629;51.400;5.494;2023-02-20T06:20:23;102259.72;;;5.81;100.00
47897;BME280;39629;51.400;5.494;2023-02-20T06:25:24;102260.44;;;5.76;100.00
47897;BME280;39629;51.400;5.494;2023-02-20T06:30:27;102252.59;;;5.76;100.00
47897;BME280;39629;51.400;5.494;2023-02-20T06:35:29;102250.09;;;5.79;100.00
47897;BME280;39629;51.400;5.494;2023-02-20T06:40:31;102243.19;;;5.82;100.00
47897;BME280;39629;51.400;5.494;2023-02-20T06:45:33;102234.59;;;5.84;100.00
47897;BME280;39629;51.400;5.494;2023-02-20T06:50:35;102239.88;;;5.86;100.00
47897;BME280;39629;51.400;5.494;2023-02-20T06:55:37;102235.56;;;5.86;100.00
47897;BME280;39629;51.400;5.494;2023-02-20T07:00:40;102249.88;;;5.96;100.00
47897;BME280;39629;51.400;5.494;2023-02-20T07:05:41;102252.50;;;5.96;100.00
47897;BME280;39629;51.400;5.494;2023-02-20T07:10:43;102244.59;;;5.94;100.00
47897;BME280;39629;51.400;5.494;2023-02-20T07:15:46;102250.94;;;6.01;100.00
47897;BME280;39629;51.400;5.494;2023-02-20T07:20:48;102255.38;;;6.04;100.00
47897;BME280;39629;51.400;5.494;2023-02-20T07:25:50;102258.09;;;6.05;100.00
47897;BME280;39629;51.400;5.494;2023-02-20T07:30:53;102253.03;;;6.10;100.00
47897;BME280;39629;51.400;5.494;2023-02-20T07:35:54;102252.25;;;6.12;100.00
47897;BME280;39629;51.400;5.494;2023-02-20T07:40:56;102257.53;;;6.14;100.00
47897;BME280;39629;51.400;5.494;2023-02-20T07:45:59;102254.25;;;6.20;100.00
47897;BME280;39629;51.400;5.494;2023-02-20T07:51:00;102252.66;;;6.23;100.00
47897;BME280;39629;51.400;5.494;2023-02-20T07:56:04;102253.50;;;6.22;100.00
47897;BME280;39629;51.400;5.494;2023-02-20T08:01:07;102252.00;;;6.29;100.00
47897;BME280;39629;51.400;5.494;2023-02-20T08:06:08;102254.84;;;6.35;100.00
47897;BME280;39629;51.400;5.494;2023-02-20T08:11:10;102255.06;;;6.41;100.00
47897;BME280;39629;51.400;5.494;2023-02-20T08:16:13;102250.00;;;6.46;100.00
47897;BME280;39629;51.400;5.494;2023-02-20T08:21:15;102254.59;;;6.52;100.00
47897;BME280;39629;51.400;5.494;2023-02-20T08:26:17;102251.25;;;6.56;100.00
47897;BME280;39629;51.400;5.494;2023-02-20T08:31:20;102252.44;;;6.64;100.00
47897;BME280;39629;51.400;5.494;2023-02-20T08:36:21;102257.88;;;6.70;100.00
47897;BME280;39629;51.400;5.494;2023-02-20T08:41:23;102252.09;;;6.79;100.00
47897;BME280;39629;51.400;5.494;2023-02-20T08:46:26;102239.16;;;6.84;100.00
47897;BME280;39629;51.400;5.494;2023-02-20T08:51:28;102240.31;;;6.92;100.00
47897;BME280;39629;51.400;5.494;2023-02-20T08:56:29;102240.31;;;6.92;100.00
47897;BME280;39629;51.400;5.494;2023-02-20T09:01:32;102233.63;;;7.00;100.00
47897;BME280;39629;51.400;5.494;2023-02-20T09:06:34;102244.19;;;7.03;100.00
47897;BME280;39629;51.400;5.494;2023-02-20T09:11:35;102246.19;;;7.10;100.00
47897;BME280;39629;51.400;5.494;2023-02-20T09:16:38;102248.06;;;7.14;100.00
47897;BME280;39629;51.400;5.494;2023-02-20T09:21:44;102237.91;;;7.24;100.00
47897;BME280;39629;51.400;5.494;2023-02-20T09:26:46;102246.81;;;7.29;100.00
47897;BME280;39629;51.400;5.494;2023-02-20T09:31:49;102242.59;;;7.34;100.00
47897;BME280;39629;51.400;5.494;2023-02-20T09:36:50;102245.41;;;7.39;100.00
47897;BME280;39629;51.400;5.494;2023-02-20T09:42:04;102251.41;;;7.36;100.00
47897;BME280;39629;51.400;5.494;2023-02-20T09:47:22;102232.53;;;7.46;100.00
47897;BME280;39629;51.400;5.494;2023-02-20T09:52:26;102229.03;;;7.46;100.00
47897;BME280;39629;51.400;5.494;2023-02-20T09:57:28;102231.69;;;7.47;100.00
47897;BME280;39629;51.400;5.494;2023-02-20T10:02:35;102228.34;;;7.52;100.00
47897;BME280;39629;51.400;5.494;2023-02-20T10:07:38;102215.63;;;7.64;100.00
47897;BME280;39629;51.400;5.494;2023-02-20T10:12:46;102217.78;;;7.77;100.00
47897;BME280;39629;51.400;5.494;2023-02-20T10:17:59;102194.97;;;7.73;100.00
47897;BME280;39629;51.400;5.494;2023-02-20T10:23:10;102215.31;;;7.82;100.00
47897;BME280;39629;51.400;5.494;2023-02-20T10:28:16;102219.75;;;7.84;100.00
47897;BME280;39629;51.400;5.494;2023-02-20T10:33:25;102222.63;;;7.94;100.00
47897;BME280;39629;51.400;5.494;2023-02-20T10:38:34;102238.28;;;7.91;100.00
47897;BME280;39629;51.400;5.494;2023-02-20T10:43:42;102218.25;;;7.93;100.00
47897;BME280;39629;51.400;5.494;2023-02-20T10:48:49;102213.22;;;8.00;100.00
47897;BME280;39629;51.400;5.494;2023-02-20T10:53:57;102238.78;;;8.08;100.00
47897;BME280;39629;51.400;5.494;2023-02-20T10:59:05;102231.06;;;8.12;100.00
47897;BME280;39629;51.400;5.494;2023-02-20T11:04:11;102238.75;;;8.06;100.00
47897;BME280;39629;51.400;5.494;2023-02-20T11:09:15;102229.22;;;8.08;100.00
47897;BME280;39629;51.400;5.494;2023-02-20T11:14:20;102228.88;;;7.97;100.00
47897;BME280;39629;51.400;5.494;2023-02-20T11:19:27;102225.72;;;8.09;100.00
47897;BME280;39629;51.400;5.494;2023-02-20T11:24:33;102221.06;;;7.99;100.00
47897;BME280;39629;51.400;5.494;2023-02-20T11:29:46;102212.34;;;8.00;100.00
47897;BME280;39629;51.400;5.494;2023-02-20T11:35:03;102220.03;;;7.94;100.00
47897;BME280;39629;51.400;5.494;2023-02-20T11:40:14;102189.47;;;7.94;100.00
47897;BME280;39629;51.400;5.494;2023-02-20T11:45:22;102200.97;;;7.99;100.00
47897;BME280;39629;51.400;5.494;2023-02-20T11:50:37;102195.72;;;7.99;100.00
47897;BME280;39629;51.400;5.494;2023-02-20T11:55:39;102208.91;;;8.01;100.00
47897;BME280;39629;51.400;5.494;2023-02-20T12:00:45;102194.09;;;8.03;100.00
47897;BME280;39629;51.400;5.494;2023-02-20T12:05:48;102175.66;;;8.00;100.00
47897;BME280;39629;51.400;5.494;2023-02-20T12:10:52;102170.88;;;8.17;100.00
47897;BME280;39629;51.400;5.494;2023-02-20T12:16:02;102167.47;;;8.20;100.00
47897;BME280;39629;51.400;5.494;2023-02-20T12:21:14;102152.66;;;8.22;100.00
47897;BME280;39629;51.400;5.494;2023-02-20T12:26:31;102140.56;;;8.27;100.00
47897;BME280;39629;51.400;5.494;2023-02-20T12:31:45;102144.97;;;8.28;100.00
47897;BME280;39629;51.400;5.494;2023-02-20T12:36:55;102146.84;;;8.32;100.00
47897;BME280;39629;51.400;5.494;2023-02-20T12:42:06;102146.91;;;8.35;100.00
47897;BME280;39629;51.400;5.494;2023-02-20T12:47:20;102145.47;;;8.46;100.00
47897;BME280;39629;51.400;5.494;2023-02-20T12:52:38;102149.56;;;8.37;100.00
47897;BME280;39629;51.400;5.494;2023-02-20T12:57:48;102139.13;;;8.38;100.00
47897;BME280;39629;51.400;5.494;2023-02-20T13:02:57;102122.47;;;8.36;100.00
47897;BME280;39629;51.400;5.494;2023-02-20T13:08:08;102124.31;;;8.40;100.00
47897;BME280;39629;51.400;5.494;2023-02-20T13:13:11;102101.69;;;8.45;100.00
47897;BME280;39629;51.400;5.494;2023-02-20T13:18:18;102079.13;;;8.52;100.00
47897;BME280;39629;51.400;5.494;2023-02-20T13:23:30;102082.03;;;8.63;100.00
47897;BME280;39629;51.400;5.494;2023-02-20T13:28:40;102062.19;;;8.74;100.00
47897;BME280;39629;51.400;5.494;2023-02-20T13:33:47;102046.16;;;8.62;100.00
47897;BME280;39629;51.400;5.494;2023-02-20T13:44:44;102058.72;;;8.75;100.00
47897;BME280;39629;51.400;5.494;2023-02-20T13:49:53;102083.75;;;8.61;100.00
47897;BME280;39629;51.400;5.494;2023-02-20T13:54:58;102070.53;;;8.58;100.00
47897;BME280;39629;51.400;5.494;2023-02-20T14:00:20;102053.19;;;8.63;100.00
47897;BME280;39629;51.400;5.494;2023-02-20T14:05:26;102025.00;;;8.54;100.00
47897;BME280;39629;51.400;5.494;2023-02-20T14:10:30;102024.25;;;8.60;100.00
47897;BME280;39629;51.400;5.494;2023-02-20T14:15:46;102045.41;;;8.67;100.00
47897;BME280;39629;51.400;5.494;2023-02-20T14:20:58;102049.72;;;8.64;100.00
47897;BME280;39629;51.400;5.494;2023-02-20T14:26:17;102037.28;;;8.57;100.00
47897;BME280;39629;51.400;5.494;2023-02-20T14:31:23;102024.78;;;8.46;100.00
47897;BME280;39629;51.400;5.494;2023-02-20T14:36:35;102017.88;;;8.50;100.00
47897;BME280;39629;51.400;5.494;2023-02-20T14:41:50;102033.72;;;8.55;100.00
47897;BME280;39629;51.400;5.494;2023-02-20T14:46:55;102021.41;;;8.52;100.00
47897;BME280;39629;51.400;5.494;2023-02-20T14:52:14;102012.81;;;8.58;100.00
47897;BME280;39629;51.400;5.494;2023-02-20T14:57:16;102013.66;;;8.55;100.00
47897;BME280;39629;51.400;5.494;2023-02-20T15:02:21;102010.19;;;8.58;100.00
47897;BME280;39629;51.400;5.494;2023-02-20T15:07:24;101997.06;;;8.58;100.00
47897;BME280;39629;51.400;5.494;2023-02-20T15:12:32;102007.50;;;8.55;100.00
47897;BME280;39629;51.400;5.494;2023-02-20T15:17:37;101994.34;;;8.53;100.00
47897;BME280;39629;51.400;5.494;2023-02-20T15:22:39;101986.56;;;8.58;100.00
47897;BME280;39629;51.400;5.494;2023-02-20T15:28:03;102002.34;;;8.59;100.00
47897;BME280;39629;51.400;5.494;2023-02-20T15:33:08;102011.97;;;8.59;100.00
47897;BME280;39629;51.400;5.494;2023-02-20T15:38:12;102004.09;;;8.59;100.00
47897;BME280;39629;51.400;5.494;2023-02-20T15:43:14;102001.44;;;8.57;100.00
47897;BME280;39629;51.400;5.494;2023-02-20T15:48:17;102005.88;;;8.60;100.00
47897;BME280;39629;51.400;5.494;2023-02-20T15:53:20;102011.97;;;8.59;100.00
47897;BME280;39629;51.400;5.494;2023-02-20T15:58:24;102010.16;;;8.56;100.00
47897;BME280;39629;51.400;5.494;2023-02-20T16:03:29;102005.72;;;8.53;100.00
47897;BME280;39629;51.400;5.494;2023-02-20T16:08:31;101990.84;;;8.52;100.00
47897;BME280;39629;51.400;5.494;2023-02-20T16:13:34;101990.75;;;8.49;100.00
47897;BME280;39629;51.400;5.494;2023-02-20T16:18:38;101983.75;;;8.48;100.00
47897;BME280;39629;51.400;5.494;2023-02-20T16:23:40;101981.09;;;8.47;100.00
47897;BME280;39629;51.400;5.494;2023-02-20T16:28:45;101979.28;;;8.44;100.00
47897;BME280;39629;51.400;5.494;2023-02-20T16:33:48;101984.53;;;8.44;100.00
47897;BME280;39629;51.400;5.494;2023-02-20T16:38:50;101968.72;;;8.41;100.00
47897;BME280;39629;51.400;5.494;2023-02-20T16:43:52;101960.84;;;8.41;100.00
47897;BME280;39629;51.400;5.494;2023-02-20T16:48:55;101955.50;;;8.38;100.00
47897;BME280;39629;51.400;5.494;2023-02-20T16:53:56;101966.00;;;8.38;100.00
47897;BME280;39629;51.400;5.494;2023-02-20T16:58:58;101989.56;;;8.37;100.00
47897;BME280;39629;51.400;5.494;2023-02-20T17:04:02;101994.72;;;8.32;100.00
47897;BME280;39629;51.400;5.494;2023-02-20T17:09:03;101986.00;;;8.33;100.00
47897;BME280;39629;51.400;5.494;2023-02-20T17:14:05;101993.81;;;8.31;100.00
47897;BME280;39629;51.400;5.494;2023-02-20T17:19:08;102017.47;;;8.33;100.00
47897;BME280;39629;51.400;5.494;2023-02-20T17:24:10;102008.63;;;8.29;100.00
47897;BME280;39629;51.400;5.494;2023-02-20T17:29:12;102004.19;;;8.27;100.00
47897;BME280;39629;51.400;5.494;2023-02-20T17:34:15;102021.66;;;8.26;100.00
47897;BME280;39629;51.400;5.494;2023-02-20T17:39:19;102017.25;;;8.25;100.00
47897;BME280;39629;51.400;5.494;2023-02-20T17:44:23;102026.88;;;8.25;100.00
47897;BME280;39629;51.400;5.494;2023-02-20T17:49:26;102025.16;;;8.27;100.00
47897;BME280;39629;51.400;5.494;2023-02-20T17:54:29;102015.44;;;8.23;100.00
47897;BME280;39629;51.400;5.494;2023-02-20T17:59:36;102020.72;;;8.24;100.00
47897;BME280;39629;51.400;5.494;2023-02-20T18:04:40;102022.53;;;8.27;100.00
47897;BME280;39629;51.400;5.494;2023-02-20T18:09:41;102029.41;;;8.22;100.00
47897;BME280;39629;51.400;5.494;2023-02-20T18:14:43;102013.59;;;8.18;100.00
47897;BME280;39629;51.400;5.494;2023-02-20T18:19:47;102012.75;;;8.20;100.00
47897;BME280;39629;51.400;5.494;2023-02-20T18:24:48;102019.75;;;8.19;100.00
47897;BME280;39629;51.400;5.494;2023-02-20T18:29:51;102016.25;;;8.20;100.00
47897;BME280;39629;51.400;5.494;2023-02-20T18:34:54;102026.69;;;8.18;100.00
47897;BME280;39629;51.400;5.494;2023-02-20T18:39:55;102024.09;;;8.18;100.00
47897;BME280;39629;51.400;5.494;2023-02-20T18:44:57;102022.31;;;8.17;100.00
47897;BME280;39629;51.400;5.494;2023-02-20T18:50:00;102025.78;;;8.16;100.00
47897;BME280;39629;51.400;5.494;2023-02-20T18:55:02;102009.19;;;8.17;100.00
47897;BME280;39629;51.400;5.494;2023-02-20T19:00:04;102022.22;;;8.14;100.00
47897;BME280;39629;51.400;5.494;2023-02-20T19:05:08;102023.97;;;8.14;100.00
47897;BME280;39629;51.400;5.494;2023-02-20T19:10:10;102012.56;;;8.13;100.00
47897;BME280;39629;51.400;5.494;2023-02-20T19:15:12;102008.19;;;8.12;100.00
47897;BME280;39629;51.400;5.494;2023-02-20T19:20:18;102011.63;;;8.10;100.00
47897;BME280;39629;51.400;5.494;2023-02-20T19:25:21;102009.88;;;8.10;100.00
47897;BME280;39629;51.400;5.494;2023-02-20T19:30:23;102008.09;;;8.09;100.00
47897;BME280;39629;51.400;5.494;2023-02-20T19:35:26;102008.09;;;8.09;100.00
47897;BME280;39629;51.400;5.494;2023-02-20T19:40:28;102010.69;;;8.08;100.00
47897;BME280;39629;51.400;5.494;2023-02-20T19:45:29;102008.00;;;8.05;100.00
47897;BME280;39629;51.400;5.494;2023-02-20T19:50:32;101999.22;;;8.03;100.00
47897;BME280;39629;51.400;5.494;2023-02-20T19:55:34;101987.81;;;8.02;100.00
47897;BME280;39629;51.400;5.494;2023-02-20T20:00:36;101992.19;;;8.01;100.00
47897;BME280;39629;51.400;5.494;2023-02-20T20:05:39;101993.03;;;8.00;100.00
47897;BME280;39629;51.400;5.494;2023-02-20T20:10:41;101983.47;;;8.03;100.00
47897;BME280;39629;51.400;5.494;2023-02-20T20:15:42;101982.47;;;7.97;100.00
47897;BME280;39629;51.400;5.494;2023-02-20T20:20:45;101980.69;;;7.96;100.00
47897;BME280;39629;51.400;5.494;2023-02-20T20:25:47;101992.06;;;7.97;100.00
47897;BME280;39629;51.400;5.494;2023-02-20T20:30:49;102004.25;;;7.95;100.00
47897;BME280;39629;51.400;5.494;2023-02-20T20:35:52;101997.22;;;7.94;100.00
47897;BME280;39629;51.400;5.494;2023-02-20T20:40:53;101984.06;;;7.92;100.00
47897;BME280;39629;51.400;5.494;2023-02-20T20:45:55;101982.25;;;7.90;100.00
47897;BME280;39629;51.400;5.494;2023-02-20T20:50:58;101982.25;;;7.90;100.00
47897;BME280;39629;51.400;5.494;2023-02-20T20:56:00;101990.03;;;7.87;100.00
47897;BME280;39629;51.400;5.494;2023-02-20T21:01:02;101994.41;;;7.86;100.00
47897;BME280;39629;51.400;5.494;2023-02-20T21:06:05;101989.09;;;7.83;100.00
47897;BME280;39629;51.400;5.494;2023-02-20T21:11:07;101973.25;;;7.80;100.00
47897;BME280;39629;51.400;5.494;2023-02-20T21:16:09;101977.63;;;7.79;100.00
47897;BME280;39629;51.400;5.494;2023-02-20T21:21:12;101982.03;;;7.80;100.00
47897;BME280;39629;51.400;5.494;2023-02-20T21:26:13;101977.59;;;7.78;100.00
47897;BME280;39629;51.400;5.494;2023-02-20T21:31:15;101974.88;;;7.75;100.00
47897;BME280;39629;51.400;5.494;2023-02-20T21:36:21;101961.75;;;7.73;100.00
47897;BME280;39629;51.400;5.494;2023-02-20T21:41:23;101971.28;;;7.71;100.00
47897;BME280;39629;51.400;5.494;2023-02-20T21:46:42;101957.28;;;7.69;100.00
47897;BME280;39629;51.400;5.494;2023-02-20T21:51:46;101957.28;;;7.69;100.00
47897;BME280;39629;51.400;5.494;2023-02-20T21:56:48;101966.81;;;7.67;100.00
47897;BME280;39629;51.400;5.494;2023-02-20T22:01:50;101979.00;;;7.65;100.00
47897;BME280;39629;51.400;5.494;2023-02-20T22:06:53;101968.44;;;7.63;100.00
47897;BME280;39629;51.400;5.494;2023-02-20T22:12:12;101957.94;;;7.62;100.00
47897;BME280;39629;51.400;5.494;2023-02-20T22:17:31;101962.25;;;7.60;100.00
47897;BME280;39629;51.400;5.494;2023-02-20T22:22:54;101967.44;;;7.58;100.00
47897;BME280;39629;51.400;5.494;2023-02-20T22:28:14;101970.03;;;7.57;100.00
47897;BME280;39629;51.400;5.494;2023-02-20T22:33:33;101942.84;;;7.53;100.00
47897;BME280;39629;51.400;5.494;2023-02-20T22:38:53;101948.06;;;7.52;100.00
47897;BME280;39629;51.400;5.494;2023-02-20T22:44:12;101946.28;;;7.50;100.00
47897;BME280;39629;51.400;5.494;2023-02-20T22:49:32;101940.09;;;7.47;100.00
47897;BME280;39629;51.400;5.494;2023-02-20T22:54:52;101919.94;;;7.44;100.00
47897;BME280;39629;51.400;5.494;2023-02-20T23:00:12;101940.91;;;7.46;100.00
47897;BME280;39629;51.400;5.494;2023-02-20T23:05:31;101941.72;;;7.43;100.00
47897;BME280;39629;51.400;5.494;2023-02-20T23:10:52;101956.56;;;7.43;100.00
47897;BME280;39629;51.400;5.494;2023-02-20T23:16:11;101947.78;;;7.42;100.00
47897;BME280;39629;51.400;5.494;2023-02-20T23:21:31;101953.03;;;7.42;100.00
47897;BME280;39629;51.400;5.494;2023-02-20T23:26:52;101947.75;;;7.41;100.00
47897;BME280;39629;51.400;5.494;2023-02-20T23:32:12;101955.53;;;7.38;100.00
47897;BME280;39629;51.400;5.494;2023-02-20T23:37:32;101947.63;;;7.36;100.00
47897;BME280;39629;51.400;5.494;2023-02-20T23:42:52;101950.22;;;7.35;100.00
47897;BME280;39629;51.400;5.494;2023-02-20T23:48:12;101948.38;;;7.32;100.00
47897;BME280;39629;51.400;5.494;2023-02-20T23:53:33;101953.53;;;7.29;100.00
47897;BME280;39629;51.400;5.494;2023-02-20T23:58:53;101956.09;;;7.27;100.00
